Time;durP1;ratioP1;P1;durP2;ratioP2;P2;SDS_P1;SDS_P2;PMS_P1;PMS_P2;Temp;Humidity;BMP_temperature;BMP_pressure;BME280_temperature;BME280_humidity;BME280_pressure;Samples;Min_cycle;Max_cycle;Signal;HPM_P1;HPM_P2
2022/06/25 00:00:46;;;;;;;;;;;;;;;17.41;71.86;97649.22;4983505;28;19936;-58
2022/06/25 00:03:14;;;;;;;;;;;;;;;17.40;72.12;97653.16;4985586;28;20032;-58
2022/06/25 00:05:42;;;;;;;;;;;;;;;17.37;72.07;97632.72;4983169;28;20684;-57
2022/06/25 00:08:10;;;;;;;;;;;;;;;17.33;72.01;97645.56;4981329;28;19955;-57
2022/06/25 00:10:38;;;;;;;;;;;;;;;17.34;72.54;97644.41;4983075;28;20026;-58
2022/06/25 00:13:05;;;;;;;;;;;;;;;17.32;72.06;97640.44;4984184;28;19945;-55
2022/06/25 00:15:33;;;;;;;;;;;;;;;17.37;72.33;97642.91;4962422;28;20515;-58
2022/06/25 00:18:03;;;;;;;;;;;;;;;17.29;72.23;97652.94;4984880;28;19961;-57
2022/06/25 00:20:31;;;;;;;;;;;;;;;17.27;72.25;97650.56;4966060;28;20306;-57
2022/06/25 00:22:59;;;;;;;;;;;;;;;17.26;72.16;97650.94;4983050;28;19957;-54
2022/06/25 00:25:28;;;;;;;;;;;;;;;17.24;72.27;97661.47;4980954;28;20217;-58
2022/06/25 00:27:56;;;;;;;;;;;;;;;17.24;72.63;97650.47;4982879;28;20033;-58
2022/06/25 00:30:24;;;;;;;;;;;;;;;17.25;72.37;97663.03;4980254;28;19930;-56
2022/06/25 00:32:53;;;;;;;;;;;;;;;17.32;72.36;97654.19;4981212;28;19930;-50
2022/06/25 00:35:22;;;;;;;;;;;;;;;17.24;72.16;97656.75;4982436;28;19988;-57
2022/06/25 00:37:50;;;;;;;;;;;;;;;17.17;72.27;97662.09;4982672;28;20004;-57
2022/06/25 00:40:19;;;;;;;;;;;;;;;17.17;72.62;97662.09;4984321;28;19972;-57
2022/06/25 00:42:47;;;;;;;;;;;;;;;17.25;72.20;97658.34;5006811;28;19934;-57
2022/06/25 00:45:15;;;;;;;;;;;;;;;17.17;72.44;97662.09;5002227;28;20396;-58
2022/06/25 00:47:43;;;;;;;;;;;;;;;17.13;72.00;97655.75;5004413;28;19930;-53
2022/06/25 00:50:12;;;;;;;;;;;;;;;17.17;72.93;97658.56;5001347;28;19933;-59
2022/06/25 00:52:42;;;;;;;;;;;;;;;17.20;72.44;97660.59;5003688;28;19929;-58
2022/06/25 00:55:14;;;;;;;;;;;;;;;17.22;72.05;97669.28;5001748;28;19960;-56
2022/06/25 00:57:43;;;;;;;;;;;;;;;17.20;72.26;97669.59;5001186;28;20140;-57
2022/06/25 01:00:14;;;;;;;;;;;;;;;17.11;72.54;97682.78;5003103;28;19945;-58
2022/06/25 01:02:43;;;;;;;;;;;;;;;17.13;72.59;97683.19;5003942;28;19959;-57
2022/06/25 01:05:12;;;;;;;;;;;;;;;17.14;72.32;97682.03;4999745;28;20000;-58
2022/06/25 01:07:44;;;;;;;;;;;;;;;17.19;72.24;97675.47;5002878;28;19935;-56
2022/06/25 01:10:13;;;;;;;;;;;;;;;17.22;72.53;97677.50;4998298;28;20361;-58
2022/06/25 01:12:42;;;;;;;;;;;;;;;17.26;72.52;97681.91;4985181;28;20024;-57
2022/06/25 01:15:14;;;;;;;;;;;;;;;17.32;72.51;97682.44;4998955;28;19945;-58
2022/06/25 01:17:44;;;;;;;;;;;;;;;17.34;72.19;97687.53;4998346;28;19964;-58
2022/06/25 01:20:14;;;;;;;;;;;;;;;17.26;72.00;97692.91;4980561;28;20246;-58
2022/06/25 01:22:44;;;;;;;;;;;;;;;17.32;72.07;97689.88;5005781;28;19977;-56
2022/06/25 01:25:13;;;;;;;;;;;;;;;17.33;72.16;97694.19;5001248;28;20015;-58
2022/06/25 01:27:41;;;;;;;;;;;;;;;17.29;72.14;97692.16;5004773;28;19988;-58
2022/06/25 01:30:14;;;;;;;;;;;;;;;17.29;72.32;97703.13;5000850;28;20060;-58
2022/06/25 01:32:43;;;;;;;;;;;;;;;17.33;72.33;97708.72;5003039;28;20465;-57
2022/06/25 01:35:11;;;;;;;;;;;;;;;17.37;72.10;97708.81;5002374;28;20358;-58
2022/06/25 01:37:39;;;;;;;;;;;;;;;17.35;71.67;97711.09;5000971;28;19929;-57
2022/06/25 01:40:09;;;;;;;;;;;;;;;17.33;71.61;97713.41;4984197;28;19929;-56
2022/06/25 01:45:24;;;;;;;;;;;;;;;17.33;71.22;97718.91;5002349;28;20309;-58
2022/06/25 01:47:52;;;;;;;;;;;;;;;17.27;71.53;97721.16;5003043;28;19934;-61
2022/06/25 01:50:20;;;;;;;;;;;;;;;17.23;71.97;97725.75;4985425;28;19929;-58
2022/06/25 01:52:48;;;;;;;;;;;;;;;17.18;72.07;97721.34;5001529;28;19941;-59
2022/06/25 01:55:18;;;;;;;;;;;;;;;17.13;71.99;97715.34;4984917;28;20020;-58
2022/06/25 01:57:48;;;;;;;;;;;;;;;17.13;72.19;97715.34;5002816;28;19988;-59
2022/06/25 02:00:19;;;;;;;;;;;;;;;17.13;72.26;97724.38;4983889;28;20099;-53
2022/06/25 02:02:52;;;;;;;;;;;;;;;17.17;72.44;97711.53;4981274;28;19929;-58
2022/06/25 02:05:56;;;;;;;;;;;;;;;17.18;72.33;97713.09;5002320;28;19929;-59
2022/06/25 02:08:10;;;;;;;;;;;;;;;17.16;72.31;97711.88;4999902;28;19937;-57
2022/06/25 02:10:40;;;;;;;;;;;;;;;17.15;72.13;97715.75;5000846;28;19925;-58
2022/06/25 02:13:09;;;;;;;;;;;;;;;17.16;71.95;97725.63;5001897;28;20353;-53
2022/06/25 02:15:37;;;;;;;;;;;;;;;17.19;72.27;97720.19;5002178;28;20072;-59
2022/06/25 02:18:06;;;;;;;;;;;;;;;17.22;71.64;97724.19;5001744;28;19926;-57
2022/06/25 02:20:34;;;;;;;;;;;;;;;17.18;71.54;97724.09;5000327;28;19933;-58
2022/06/25 02:23:02;;;;;;;;;;;;;;;17.12;72.01;97731.00;4997632;28;19951;-58
2022/06/25 02:25:30;;;;;;;;;;;;;;;17.13;72.12;97727.09;4997532;28;20344;-58
2022/06/25 02:28:00;;;;;;;;;;;;;;;17.12;72.12;97731.00;5004042;28;19933;-58
2022/06/25 02:30:30;;;;;;;;;;;;;;;17.12;72.20;97731.00;5002939;28;19940;-59
2022/06/25 02:33:01;;;;;;;;;;;;;;;17.18;72.42;97735.06;5001685;28;20013;-58
2022/06/25 02:35:30;;;;;;;;;;;;;;;17.17;71.98;97738.97;4999117;28;20304;-56
2022/06/25 02:38:00;;;;;;;;;;;;;;;17.14;71.79;97739.69;5003895;28;19943;-58
2022/06/25 02:40:30;;;;;;;;;;;;;;;17.15;71.90;97741.28;4987792;28;20064;-59
2022/06/25 02:42:58;;;;;;;;;;;;;;;17.12;72.13;97736.50;4987164;28;19940;-56
2022/06/25 02:45:31;;;;;;;;;;;;;;;17.17;71.91;97752.69;5005154;28;20321;-58
2022/06/25 02:48:00;;;;;;;;;;;;;;;17.10;71.68;97738.00;4994085;28;20004;-55
2022/06/25 02:50:28;;;;;;;;;;;;;;;17.10;72.01;97747.06;4987746;28;20139;-58
2022/06/25 02:52:57;;;;;;;;;;;;;;;17.11;71.96;97748.66;4988631;28;20028;-58
2022/06/25 02:58:54;;;;;;;;;;;;;;;17.12;72.07;97752.97;4988022;28;19945;-59
2022/06/25 03:01:02;;;;;;;;;;;;;;;17.07;71.87;97750.50;4990132;28;19933;-58
2022/06/25 03:03:30;;;;;;;;;;;;;;;17.14;71.63;97756.16;5003465;28;19942;-58
2022/06/25 03:05:58;;;;;;;;;;;;;;;17.07;71.76;97750.50;5005882;28;20358;-59
2022/06/25 03:08:28;;;;;;;;;;;;;;;17.09;71.83;97752.88;4986208;28;19980;-56
2022/06/25 03:10:56;;;;;;;;;;;;;;;17.09;71.88;97747.41;5003844;28;20020;-58
2022/06/25 03:13:25;;;;;;;;;;;;;;;17.07;71.89;97750.50;4998272;28;20402;-59
2022/06/25 03:15:54;;;;;;;;;;;;;;;17.08;71.96;97749.34;4984044;28;20314;-57
2022/06/25 03:18:24;;;;;;;;;;;;;;;17.09;71.85;97753.69;4989259;28;19956;-52
2022/06/25 03:21:11;;;;;;;;;;;;;;;17.16;71.80;97755.81;5004472;28;20401;-58
2022/06/25 03:23:41;;;;;;;;;;;;;;;17.11;71.44;97758.84;5003017;28;19957;-57
2022/06/25 03:26:10;;;;;;;;;;;;;;;17.10;71.60;97758.03;5001635;28;19936;-57
2022/06/25 03:28:38;;;;;;;;;;;;;;;17.14;71.50;97755.34;5004179;28;19976;-58
2022/06/25 03:31:07;;;;;;;;;;;;;;;17.17;71.47;97758.19;4989482;28;19937;-59
2022/06/25 03:33:38;;;;;;;;;;;;;;;17.19;71.50;97757.81;4985016;28;19925;-58
2022/06/25 03:36:10;;;;;;;;;;;;;;;17.17;71.54;97755.44;4986498;28;20374;-57
2022/06/25 03:38:44;;;;;;;;;;;;;;;17.17;71.45;97758.19;5000716;28;19929;-58
2022/06/25 03:44:26;;;;;;;;;;;;;;;17.27;71.13;97768.63;4999797;28;19930;-57
2022/06/25 03:47:04;;;;;;;;;;;;;;;17.24;71.18;97769.31;4967519;28;20398;-58
2022/06/25 03:49:36;;;;;;;;;;;;;;;17.27;71.09;97776.84;5001757;28;19929;-58
2022/06/25 03:52:09;;;;;;;;;;;;;;;17.18;71.29;97772.72;4970509;28;20001;-58
2022/06/25 03:54:38;;;;;;;;;;;;;;;17.13;71.37;97773.78;4986290;28;20405;-58
2022/06/25 03:57:06;;;;;;;;;;;;;;;17.13;71.44;97772.97;4964304;28;19926;-57
2022/06/25 04:00:01;;;;;;;;;;;;;;;17.18;71.71;97779.00;4972294;28;19926;-57
2022/06/25 04:02:39;;;;;;;;;;;;;;;17.17;71.53;97782.91;4985267;28;20131;-58
2022/06/25 04:05:47;;;;;;;;;;;;;;;17.21;71.44;97788.47;4980608;28;19952;-57
2022/06/25 04:08:35;;;;;;;;;;;;;;;17.18;71.83;97779.00;4969242;28;19941;-58
2022/06/25 04:11:08;;;;;;;;;;;;;;;17.18;71.26;97784.47;4967895;28;19950;-57
2022/06/25 04:13:42;;;;;;;;;;;;;;;17.15;71.28;97781.66;4998551;28;20493;-59
2022/06/25 04:16:12;;;;;;;;;;;;;;;17.06;71.35;97781.84;4968881;28;19973;-58
2022/06/25 04:18:40;;;;;;;;;;;;;;;17.15;71.62;97787.97;4969658;28;19991;-58
2022/06/25 04:21:12;;;;;;;;;;;;;;;17.12;72.00;97783.16;4969137;28;19925;-55
2022/06/25 04:23:41;;;;;;;;;;;;;;;17.14;71.53;97791.03;4979682;28;19973;-58
2022/06/25 04:26:39;;;;;;;;;;;;;;;17.19;71.70;97790.75;4996564;28;20440;-56
2022/06/25 04:29:08;;;;;;;;;;;;;;;17.23;71.43;97789.69;5000581;28;19961;-57
2022/06/25 04:31:56;;;;;;;;;;;;;;;17.18;71.39;97798.22;4967988;28;20278;-58
2022/06/25 04:37:50;;;;;;;;;;;;;;;17.19;71.17;97810.78;4997748;28;19930;-56
2022/06/25 04:40:20;;;;;;;;;;;;;;;17.15;71.34;97809.91;4982647;28;19930;-58
2022/06/25 04:42:51;;;;;;;;;;;;;;;17.15;71.28;97811.84;4952437;28;19936;-58
2022/06/25 04:45:19;;;;;;;;;;;;;;;17.20;71.62;97812.34;4978703;28;20191;-57
2022/06/25 04:48:07;;;;;;;;;;;;;;;17.20;71.27;97815.09;4985655;28;19978;-56
2022/06/25 04:51:00;;;;;;;;;;;;;;;17.33;70.85;97812.28;4978362;28;20020;-57
2022/06/25 04:53:30;;;;;;;;;;;;;;;17.36;70.82;97817.03;4984604;28;20354;-58
2022/06/25 04:55:59;;;;;;;;;;;;;;;17.38;70.81;97814.75;4979706;28;19965;-58
2022/06/25 04:58:27;;;;;;;;;;;;;;;17.43;70.37;97812.50;4979904;28;19937;-57
2022/06/25 05:01:21;;;;;;;;;;;;;;;17.60;70.41;97822.28;4950305;28;19945;-58
2022/06/25 05:03:49;;;;;;;;;;;;;;;17.56;70.06;97821.41;4984349;28;19976;-58
2022/06/25 05:06:44;;;;;;;;;;;;;;;17.58;69.62;97821.03;4968823;28;19926;-58
2022/06/25 05:09:36;;;;;;;;;;;;;;;17.60;69.88;97819.53;4977703;28;20377;-58
2022/06/25 05:12:06;;;;;;;;;;;;;;;17.62;69.72;97824.66;4982603;28;20043;-55
2022/06/25 05:14:38;;;;;;;;;;;;;;;17.60;69.45;97827.78;4981253;28;19929;-56
2022/06/25 05:17:32;;;;;;;;;;;;;;;17.52;69.80;97824.09;4968037;28;19954;-57
2022/06/25 05:20:02;;;;;;;;;;;;;;;17.49;69.63;97824.00;4966941;28;19925;-58
2022/06/25 05:22:32;;;;;;;;;;;;;;;17.49;69.94;97826.75;4983768;28;19926;-58
2022/06/25 05:25:02;;;;;;;;;;;;;;;17.48;69.77;97822.41;4981633;28;19966;-56
2022/06/25 05:27:31;;;;;;;;;;;;;;;17.57;69.54;97820.25;4983326;28;19929;-56
2022/06/25 05:30:00;;;;;;;;;;;;;;;17.58;69.54;97824.59;4979602;28;19960;-58
2022/06/25 05:32:29;;;;;;;;;;;;;;;17.59;69.44;97830.91;4986932;28;19938;-58
2022/06/25 05:34:57;;;;;;;;;;;;;;;17.67;69.54;97833.41;4979290;28;19926;-58
2022/06/25 05:37:25;;;;;;;;;;;;;;;17.65;69.13;97833.00;4980321;28;19992;-58
2022/06/25 05:39:53;;;;;;;;;;;;;;;17.63;69.06;97827.06;4979982;28;20056;-55
2022/06/25 05:42:22;;;;;;;;;;;;;;;17.66;69.29;97836.53;4980312;28;20000;-58
2022/06/25 05:44:51;;;;;;;;;;;;;;;17.72;69.27;97830.41;4981356;28;20034;-58
2022/06/25 05:47:19;;;;;;;;;;;;;;;17.63;69.01;97838.06;4982130;28;19990;-57
2022/06/25 05:49:48;;;;;;;;;;;;;;;17.63;69.36;97843.56;4983617;28;20407;-59
2022/06/25 05:52:16;;;;;;;;;;;;;;;17.60;69.38;97843.47;4974540;28;20381;-58
2022/06/25 05:54:43;;;;;;;;;;;;;;;17.60;69.49;97840.72;4981378;28;19926;-58
2022/06/25 05:57:12;;;;;;;;;;;;;;;17.60;68.95;97838.78;4978495;28;20282;-58
2022/06/25 05:59:40;;;;;;;;;;;;;;;17.59;69.46;97845.44;4982081;28;19933;-58
2022/06/25 06:02:09;;;;;;;;;;;;;;;17.63;69.06;97854.53;4979385;28;19957;-55
2022/06/25 06:04:38;;;;;;;;;;;;;;;17.65;68.97;97854.19;4980457;28;19979;-57
2022/06/25 06:07:06;;;;;;;;;;;;;;;17.51;69.25;97851.91;4979271;28;20445;-58
2022/06/25 06:09:34;;;;;;;;;;;;;;;17.49;69.25;97856.97;4979425;28;19941;-60
2022/06/25 06:12:02;;;;;;;;;;;;;;;17.48;69.09;97858.91;4976334;28;19930;-58
2022/06/25 06:14:31;;;;;;;;;;;;;;;17.57;68.99;97855.97;4979868;28;20714;-58
2022/06/25 06:17:00;;;;;;;;;;;;;;;17.64;68.35;97858.88;4983635;28;20297;-56
2022/06/25 06:19:29;;;;;;;;;;;;;;;17.57;68.31;97860.66;4978559;28;20311;-58
2022/06/25 06:21:57;;;;;;;;;;;;;;;17.63;68.47;97870.22;4981301;28;19976;-58
2022/06/25 06:24:25;;;;;;;;;;;;;;;17.59;68.68;97861.91;4978191;28;20060;-58
2022/06/25 06:26:54;;;;;;;;;;;;;;;17.62;68.43;97863.91;4981724;28;19969;-58
2022/06/25 06:29:24;;;;;;;;;;;;;;;17.54;68.40;97868.47;4978758;28;19926;-50
2022/06/25 06:31:52;;;;;;;;;;;;;;;17.61;68.41;97870.56;4979906;28;19946;-58
2022/06/25 06:34:21;;;;;;;;;;;;;;;17.79;68.11;97871.00;4980846;28;19930;-58
2022/06/25 06:36:51;;;;;;;;;;;;;;;18.04;67.23;97863.28;4980996;28;20029;-58
2022/06/25 06:39:19;;;;;;;;;;;;;;;18.11;67.09;97868.94;4981695;28;20282;-54
2022/06/25 06:41:48;;;;;;;;;;;;;;;18.20;66.24;97861.25;4992736;28;20003;-58
2022/06/25 06:44:16;;;;;;;;;;;;;;;18.12;65.95;97865.03;4999926;28;19929;-57
2022/06/25 06:46:44;;;;;;;;;;;;;;;18.23;66.04;97866.03;4996626;28;20008;-57
2022/06/25 06:49:12;;;;;;;;;;;;;;;18.34;65.40;97869.00;5003377;28;20118;-58
2022/06/25 06:51:41;;;;;;;;;;;;;;;18.46;64.33;97873.53;4997702;28;19929;-58
2022/06/25 06:54:10;;;;;;;;;;;;;;;18.70;64.31;97870.50;4999178;28;19926;-58
2022/06/25 06:57:03;;;;;;;;;;;;;;;19.04;62.33;97867.91;5000727;28;19925;-58
2022/06/25 06:59:32;;;;;;;;;;;;;;;19.18;62.86;97873.69;4999971;28;20016;-57
2022/06/25 07:02:01;;;;;;;;;;;;;;;19.23;62.74;97870.63;4992842;28;20024;-57
2022/06/25 07:04:29;;;;;;;;;;;;;;;18.93;63.33;97876.00;4997569;28;19933;-58
2022/06/25 07:07:02;;;;;;;;;;;;;;;18.90;63.15;97873.97;4999748;28;19929;-58
2022/06/25 07:09:31;;;;;;;;;;;;;;;18.86;63.79;97869.59;5000064;28;20391;-56
2022/06/25 07:12:00;;;;;;;;;;;;;;;18.98;63.22;97867.44;5003240;28;19940;-59
2022/06/25 07:14:28;;;;;;;;;;;;;;;18.86;63.38;97869.59;4997781;28;19972;-59
2022/06/25 07:16:56;;;;;;;;;;;;;;;18.74;64.04;97876.84;5001573;28;19944;-59
2022/06/25 07:19:24;;;;;;;;;;;;;;;18.66;64.43;97866.84;5001716;28;20389;-59
2022/06/25 07:21:54;;;;;;;;;;;;;;;18.73;64.67;97869.75;5003607;28;20393;-52
2022/06/25 07:24:23;;;;;;;;;;;;;;;18.82;64.37;97869.53;4998504;28;19925;-50
2022/06/25 07:26:53;;;;;;;;;;;;;;;18.83;64.21;97874.66;5003448;28;19932;-58
2022/06/25 07:29:21;;;;;;;;;;;;;;;19.10;63.28;97875.50;5002980;28;19930;-53
2022/06/25 07:31:50;;;;;;;;;;;;;;;19.07;63.84;97878.22;5004290;28;19972;-59
2022/06/25 07:34:18;;;;;;;;;;;;;;;19.03;63.25;97877.34;5002323;28;19970;-56
2022/06/25 07:36:46;;;;;;;;;;;;;;;19.23;62.66;97880.81;4999059;28;19933;-60
2022/06/25 07:39:14;;;;;;;;;;;;;;;19.27;62.53;97882.47;5004274;28;20340;-58
2022/06/25 07:41:42;;;;;;;;;;;;;;;19.27;62.39;97884.41;5003005;28;19987;-59
2022/06/25 07:44:12;;;;;;;;;;;;;;;19.22;62.82;97871.75;5005549;28;19930;-58
2022/06/25 07:46:40;;;;;;;;;;;;;;;19.59;61.43;97871.16;5007135;28;20301;-59
2022/06/25 07:49:09;;;;;;;;;;;;;;;19.75;61.38;97871.78;4984613;28;19925;-58
2022/06/25 07:54:23;;;;;;;;;;;;;;;19.53;62.11;97864.34;4985048;28;19945;-51
2022/06/25 07:56:51;;;;;;;;;;;;;;;19.71;61.93;97862.69;5004037;28;19936;-59
2022/06/25 07:59:21;;;;;;;;;;;;;;;19.94;60.90;97862.59;5002027;28;20027;-60
2022/06/25 08:02:14;;;;;;;;;;;;;;;19.89;60.49;97872.00;5003102;28;19926;-52
2022/06/25 08:04:43;;;;;;;;;;;;;;;20.05;60.44;97857.22;5006501;28;19936;-59
2022/06/25 08:07:12;;;;;;;;;;;;;;;19.97;60.43;97847.25;5004279;28;19933;-59
2022/06/25 08:09:40;;;;;;;;;;;;;;;20.00;60.62;97855.59;5002558;28;19951;-60
2022/06/25 08:12:08;;;;;;;;;;;;;;;19.94;60.77;97862.59;5002708;28;20015;-58
2022/06/25 08:14:38;;;;;;;;;;;;;;;20.15;60.36;97859.31;5002242;28;19926;-60
2022/06/25 08:17:34;;;;;;;;;;;;;;;20.39;60.02;97853.28;5000369;28;20021;-56
2022/06/25 08:20:02;;;;;;;;;;;;;;;20.30;59.42;97865.81;4999838;28;20098;-58
2022/06/25 08:22:31;;;;;;;;;;;;;;;20.53;59.14;97858.19;5007202;28;20326;-59
2022/06/25 08:24:59;;;;;;;;;;;;;;;20.46;59.90;97858.13;4999970;28;19961;-59
2022/06/25 08:27:27;;;;;;;;;;;;;;;20.46;58.90;97862.84;5003442;28;19972;-60
2022/06/25 08:29:57;;;;;;;;;;;;;;;20.66;58.40;97858.72;5002730;28;20019;-58
2022/06/25 08:32:25;;;;;;;;;;;;;;;20.51;58.84;97862.53;5005006;28;19934;-57
2022/06/25 08:34:53;;;;;;;;;;;;;;;20.61;59.02;97864.56;5003539;28;19934;-57
2022/06/25 08:37:22;;;;;;;;;;;;;;;20.77;58.61;97867.91;5000468;28;20447;-58
2022/06/25 08:39:51;;;;;;;;;;;;;;;20.68;58.21;97861.91;5005593;28;19964;-58
2022/06/25 08:42:19;;;;;;;;;;;;;;;20.72;57.69;97857.22;4984106;28;19957;-57
2022/06/25 08:44:47;;;;;;;;;;;;;;;20.91;58.33;97858.97;4982041;28;19929;-58
2022/06/25 08:47:18;;;;;;;;;;;;;;;20.92;55.63;97850.28;4980274;28;19926;-56
2022/06/25 08:49:49;;;;;;;;;;;;;;;21.14;55.60;97847.69;4981834;28;19945;-59
2022/06/25 08:52:19;;;;;;;;;;;;;;;21.41;53.92;97843.63;4984549;28;20020;-57
2022/06/25 08:54:47;;;;;;;;;;;;;;;21.59;53.53;97848.47;4981691;28;20064;-58
2022/06/25 08:57:16;;;;;;;;;;;;;;;21.59;53.95;97848.47;4981857;28;20374;-49
2022/06/25 08:59:44;;;;;;;;;;;;;;;21.60;53.67;97850.84;4982996;28;20000;-58
2022/06/25 09:02:13;;;;;;;;;;;;;;;21.60;54.89;97848.06;4980166;28;20256;-55
2022/06/25 09:04:43;;;;;;;;;;;;;;;21.50;55.06;97845.25;4981675;28;19933;-58
2022/06/25 09:07:12;;;;;;;;;;;;;;;21.53;55.25;97842.50;4981889;28;19972;-58
2022/06/25 09:09:41;;;;;;;;;;;;;;;21.03;55.88;97839.34;4982323;28;19991;-55
2022/06/25 09:12:09;;;;;;;;;;;;;;;20.87;56.21;97847.88;4982333;28;19977;-58
2022/06/25 09:14:37;;;;;;;;;;;;;;;20.79;56.10;97840.72;4983323;28;20337;-57
2022/06/25 09:20:00;;;;;;;;;;;;;;;21.30;54.71;97836.41;4983519;28;19932;-58
2022/06/25 09:22:31;;;;;;;;;;;;;;;21.47;54.98;97837.72;4978498;28;20342;-56
2022/06/25 09:25:00;;;;;;;;;;;;;;;21.51;54.35;97841.28;4981816;28;19926;-58
2022/06/25 09:27:35;;;;;;;;;;;;;;;21.36;53.81;97830.16;4981661;28;19925;-59
2022/06/25 09:30:08;;;;;;;;;;;;;;;21.49;53.67;97838.13;4980018;28;19930;-59
2022/06/25 09:32:43;;;;;;;;;;;;;;;21.78;52.86;97839.06;4982462;28;20377;-58
2022/06/25 09:35:13;;;;;;;;;;;;;;;22.02;52.07;97832.09;4979516;28;20010;-58
2022/06/25 09:37:42;;;;;;;;;;;;;;;22.27;51.48;97835.78;4982990;28;19942;-53
2022/06/25 09:40:11;;;;;;;;;;;;;;;22.48;51.55;97838.63;4976415;28;19937;-59
2022/06/25 09:42:39;;;;;;;;;;;;;;;22.40;50.99;97837.00;4999951;28;20353;-58
2022/06/25 09:45:09;;;;;;;;;;;;;;;22.33;51.18;97831.44;5000803;28;19960;-59
2022/06/25 09:47:37;;;;;;;;;;;;;;;22.13;52.93;97836.50;5000191;28;20001;-59
2022/06/25 09:50:10;;;;;;;;;;;;;;;21.87;51.19;97837.56;5002291;28;20447;-59
2022/06/25 09:52:53;;;;;;;;;;;;;;;21.87;51.13;97837.56;5000623;28;19973;-58
2022/06/25 09:55:27;;;;;;;;;;;;;;;21.94;50.13;97826.53;5000307;28;20020;-59
2022/06/25 09:57:55;;;;;;;;;;;;;;;21.86;50.96;97830.44;5001961;28;19925;-57
2022/06/25 10:00:24;;;;;;;;;;;;;;;21.84;51.11;97824.50;5003190;28;19926;-56
2022/06/25 10:02:52;;;;;;;;;;;;;;;21.72;51.65;97819.28;5003139;28;20516;-54
2022/06/25 10:05:22;;;;;;;;;;;;;;;22.10;50.73;97825.41;5003326;28;20477;-58
2022/06/25 10:08:04;;;;;;;;;;;;;;;22.40;50.30;97828.69;5000463;28;19974;-58
2022/06/25 10:10:35;;;;;;;;;;;;;;;22.45;50.95;97822.78;5000891;28;20103;-56
2022/06/25 10:13:04;;;;;;;;;;;;;;;22.66;50.74;97832.31;4999543;28;19930;-59
2022/06/25 10:15:31;;;;;;;;;;;;;;;22.82;49.90;97818.88;4999465;28;19970;-55
2022/06/25 10:18:01;;;;;;;;;;;;;;;22.49;50.37;97829.13;5001889;28;19936;-58
2022/06/25 10:20:29;;;;;;;;;;;;;;;22.25;50.72;97821.53;5002775;28;20315;-59
2022/06/25 10:22:58;;;;;;;;;;;;;;;22.22;51.25;97819.56;5001169;28;19933;-59
2022/06/25 10:25:27;;;;;;;;;;;;;;;22.46;49.89;97818.03;5000560;28;20404;-58
2022/06/25 10:28:05;;;;;;;;;;;;;;;22.48;50.07;97815.69;5002807;28;19956;-57
2022/06/25 10:30:54;;;;;;;;;;;;;;;22.35;50.41;97808.91;5001296;28;19930;-59
2022/06/25 10:33:23;;;;;;;;;;;;;;;22.10;49.77;97809.63;4978940;28;19980;-59
2022/06/25 10:35:52;;;;;;;;;;;;;;;22.08;49.65;97803.66;5000072;28;20258;-58
2022/06/25 10:38:21;;;;;;;;;;;;;;;22.17;49.16;97800.56;5003222;28;19926;-58
2022/06/25 10:40:51;;;;;;;;;;;;;;;22.37;48.98;97793.50;5001961;28;20274;-58
2022/06/25 10:43:39;;;;;;;;;;;;;;;22.63;48.43;97799.84;5001655;28;19926;-59
2022/06/25 10:46:20;;;;;;;;;;;;;;;22.90;48.22;97786.44;5003046;28;19937;-59
2022/06/25 10:48:53;;;;;;;;;;;;;;;22.88;47.64;97778.53;5002402;28;20262;-58
2022/06/25 10:51:28;;;;;;;;;;;;;;;22.91;47.22;97772.22;5004262;28;20345;-57
2022/06/25 10:53:56;;;;;;;;;;;;;;;22.89;48.28;97768.25;5003345;28;19925;-58
2022/06/25 10:56:24;;;;;;;;;;;;;;;22.91;48.00;97768.66;4999661;28;19925;-57
2022/06/25 10:59:35;;;;;;;;;;;;;;;23.13;47.62;97763.91;5003521;28;19930;-55
2022/06/25 11:02:06;;;;;;;;;;;;;;;23.03;46.21;97773.00;5007039;28;19976;-59
2022/06/25 11:04:35;;;;;;;;;;;;;;;23.14;46.88;97760.72;5003559;28;19943;-58
2022/06/25 11:07:09;;;;;;;;;;;;;;;23.30;45.65;97757.53;5005430;28;19926;-58
2022/06/25 11:09:38;;;;;;;;;;;;;;;23.26;44.09;97756.72;5007489;28;19926;-59
2022/06/25 11:12:08;;;;;;;;;;;;;;;23.10;44.42;97762.69;5006597;28;19964;-58
2022/06/25 11:14:36;;;;;;;;;;;;;;;23.00;43.68;97760.72;5004000;28;19953;-56
2022/06/25 11:17:09;;;;;;;;;;;;;;;23.11;44.41;97764.28;4988239;28;20262;-55
2022/06/25 11:19:43;;;;;;;;;;;;;;;23.32;43.42;97757.13;5006994;28;19952;-58
2022/06/25 11:22:15;;;;;;;;;;;;;;;23.48;43.47;97758.25;5007210;28;20025;-58
2022/06/25 11:28:47;;;;;;;;;;;;;;;23.41;43.07;97758.28;5005247;28;20373;-59
2022/06/25 11:30:21;;;;;;;;;;;;;;;23.81;42.99;97750.66;5006128;28;20270;-58
2022/06/25 11:32:50;;;;;;;;;;;;;;;23.53;42.86;97741.19;5006625;28;20034;-59
2022/06/25 11:35:18;;;;;;;;;;;;;;;23.64;44.19;97745.97;5004370;28;20390;-58
2022/06/25 11:37:47;;;;;;;;;;;;;;;23.65;44.64;97742.81;5007350;28;19952;-51
2022/06/25 11:40:15;;;;;;;;;;;;;;;23.64;44.98;97741.19;5006625;28;19933;-58
2022/06/25 11:42:43;;;;;;;;;;;;;;;23.88;45.06;97747.84;5007070;28;19930;-58
2022/06/25 11:48:05;;;;;;;;;;;;;;;23.86;43.84;97741.91;5005406;28;20027;-58
2022/06/25 11:50:34;;;;;;;;;;;;;;;23.77;44.17;97745.13;5005872;28;19929;-58
2022/06/25 11:53:07;;;;;;;;;;;;;;;23.65;44.25;97739.22;5006069;28;20311;-59
2022/06/25 11:55:38;;;;;;;;;;;;;;;23.61;44.46;97742.00;5002827;28;20407;-59
2022/06/25 11:58:06;;;;;;;;;;;;;;;23.80;44.21;97740.75;5003674;28;19932;-58
2022/06/25 12:00:35;;;;;;;;;;;;;;;23.81;43.34;97739.56;5003325;28;20367;-57
2022/06/25 12:03:03;;;;;;;;;;;;;;;23.98;43.39;97741.47;5005321;28;20382;-57
2022/06/25 12:05:34;;;;;;;;;;;;;;;24.12;43.61;97742.56;5004902;28;19925;-59
2022/06/25 12:08:02;;;;;;;;;;;;;;;24.11;43.30;97735.44;5005748;28;20012;-57
2022/06/25 12:10:30;;;;;;;;;;;;;;;24.12;43.45;97734.25;5005160;28;20258;-58
2022/06/25 12:12:58;;;;;;;;;;;;;;;24.03;43.31;97735.50;5003475;28;19949;-58
2022/06/25 12:15:29;;;;;;;;;;;;;;;23.98;43.81;97732.34;5003346;28;20033;-59
2022/06/25 12:18:03;;;;;;;;;;;;;;;23.95;43.31;97731.16;5005688;28;19925;-58
2022/06/25 12:20:31;;;;;;;;;;;;;;;23.92;43.43;97728.41;5003154;28;19925;-57
2022/06/25 12:23:01;;;;;;;;;;;;;;;23.75;43.40;97730.06;5006155;28;19937;-58
2022/06/25 12:25:30;;;;;;;;;;;;;;;23.88;44.14;97728.44;5000794;28;20350;-57
2022/06/25 12:27:58;;;;;;;;;;;;;;;24.08;43.30;97719.63;5005058;28;19941;-59
2022/06/25 12:30:28;;;;;;;;;;;;;;;24.13;43.27;97713.59;5004572;28;20071;-58
2022/06/25 12:32:58;;;;;;;;;;;;;;;24.14;42.87;97715.22;5004024;28;20311;-58
2022/06/25 12:35:28;;;;;;;;;;;;;;;24.26;41.69;97709.19;5005376;28;19925;-59
2022/06/25 12:38:01;;;;;;;;;;;;;;;24.20;42.40;97710.81;5004989;28;19934;-57
2022/06/25 12:40:30;;;;;;;;;;;;;;;24.30;42.68;97707.19;5002491;28;19949;-58
2022/06/25 12:42:59;;;;;;;;;;;;;;;24.33;43.24;97706.34;5004766;28;19925;-58
2022/06/25 12:45:27;;;;;;;;;;;;;;;24.44;41.96;97701.53;4992577;28;20228;-58
2022/06/25 12:47:55;;;;;;;;;;;;;;;24.46;42.46;97701.13;5002359;28;20346;-55
2022/06/25 12:50:24;;;;;;;;;;;;;;;24.59;41.67;97706.97;5005132;28;19926;-57
2022/06/25 12:52:53;;;;;;;;;;;;;;;24.51;41.97;97695.94;5006111;28;19925;-57
2022/06/25 12:55:23;;;;;;;;;;;;;;;24.63;42.51;97696.63;5005283;28;19933;-58
2022/06/25 12:57:54;;;;;;;;;;;;;;;24.55;41.73;97699.47;5002922;28;19956;-59
2022/06/25 13:00:23;;;;;;;;;;;;;;;24.38;41.61;97689.28;5002839;28;20424;-54
2022/06/25 13:02:52;;;;;;;;;;;;;;;24.39;41.62;97699.19;5000410;28;19934;-58
2022/06/25 13:05:20;;;;;;;;;;;;;;;24.26;42.61;97700.84;5004284;28;20023;-58
2022/06/25 13:07:48;;;;;;;;;;;;;;;24.26;43.33;97700.84;5004102;28;19933;-59
2022/06/25 13:10:17;;;;;;;;;;;;;;;24.14;41.99;97699.34;5003693;28;19937;-59
2022/06/25 13:12:50;;;;;;;;;;;;;;;24.01;42.21;97701.78;5002662;28;19926;-59
2022/06/25 13:15:18;;;;;;;;;;;;;;;24.03;42.95;97704.19;5002729;28;20420;-59
2022/06/25 13:17:46;;;;;;;;;;;;;;;24.03;43.03;97704.97;5003764;28;19929;-58
2022/06/25 13:20:14;;;;;;;;;;;;;;;24.10;42.50;97700.56;5003636;28;20278;-60
2022/06/25 13:22:43;;;;;;;;;;;;;;;24.10;41.64;97701.34;5004704;28;20269;-58
2022/06/25 13:25:11;;;;;;;;;;;;;;;24.19;42.85;97701.69;5003596;28;20019;-59
2022/06/25 13:27:40;;;;;;;;;;;;;;;24.19;43.06;97704.47;5002249;28;20075;-59
2022/06/25 13:30:10;;;;;;;;;;;;;;;24.20;43.09;97702.47;5003028;28;20409;-59